createdAt,value
2018-04-19T00:00:59.329Z,24.90
2018-04-19T00:04:01.817Z,24.00
2018-04-19T00:07:04.329Z,24.87
2018-04-19T00:10:06.845Z,23.53
2018-04-19T00:13:09.384Z,24.57
2018-04-19T00:16:11.791Z,24.60
2018-04-19T00:19:14.283Z,22.47
2018-04-19T00:22:16.753Z,22.83
2018-04-19T00:25:19.355Z,24.40
2018-04-19T00:28:21.843Z,22.73
2018-04-19T00:31:24.282Z,22.20
2018-04-19T00:34:26.821Z,21.70
2018-04-19T00:37:29.243Z,22.57
2018-04-19T00:40:31.892Z,21.70
2018-04-19T00:43:34.364Z,23.27
2018-04-19T00:46:36.965Z,23.93
2018-04-19T00:49:39.475Z,23.10
2018-04-19T00:52:53.585Z,21.97
2018-04-19T00:55:56.039Z,22.63
2018-04-19T00:58:58.576Z,23.23
2018-04-19T01:02:01.033Z,22.60
2018-04-19T01:05:03.545Z,23.60
2018-04-19T01:08:05.999Z,21.80
2018-04-19T01:11:08.463Z,23.40
2018-04-19T01:14:10.980Z,22.63
2018-04-19T01:17:13.474Z,22.77
2018-04-19T01:20:15.991Z,21.20
2018-04-19T01:23:18.525Z,21.83
2018-04-19T01:26:20.980Z,22.40
2018-04-19T01:29:23.445Z,23.10
2018-04-19T01:32:25.927Z,23.83
2018-04-19T01:35:40.230Z,22.23
2018-04-19T01:38:42.725Z,21.70
2018-04-19T01:41:45.229Z,22.33
2018-04-19T01:44:48.018Z,22.87
2018-04-19T01:47:50.504Z,21.47
2018-04-19T01:50:52.959Z,22.50
2018-04-19T01:53:55.469Z,21.03
2018-04-19T01:56:57.956Z,21.93
2018-04-19T02:00:00.446Z,21.40
2018-04-19T02:03:02.880Z,22.20
2018-04-19T02:06:05.385Z,22.97
2018-04-19T02:09:07.850Z,21.50
2018-04-19T02:12:10.345Z,19.83
2018-04-19T02:15:12.822Z,19.13
2018-04-19T02:18:15.281Z,19.50
2018-04-19T02:21:17.814Z,19.07
2018-04-19T02:24:20.276Z,20.10
2018-04-19T02:27:22.881Z,18.80
2018-04-19T02:30:25.331Z,20.57
2018-04-19T02:33:27.821Z,20.03
2018-04-19T02:36:30.311Z,18.70
2018-04-19T02:39:32.818Z,20.23
2018-04-19T02:42:35.318Z,21.17
2018-04-19T02:45:37.799Z,20.27
2018-04-19T02:48:40.323Z,20.83
2018-04-19T02:51:42.835Z,20.10
2018-04-19T02:54:45.332Z,20.70
2018-04-19T02:57:47.847Z,20.40
2018-04-19T03:00:50.345Z,20.00
2018-04-19T03:03:52.825Z,19.53
2018-04-19T03:06:55.283Z,19.20
2018-04-19T03:09:57.797Z,19.53
2018-04-19T03:13:00.279Z,19.87
2018-04-19T03:16:02.758Z,19.40
2018-04-19T03:19:05.229Z,20.40
2018-04-19T03:22:07.735Z,20.00
2018-04-19T03:25:10.246Z,21.20
2018-04-19T03:28:12.731Z,19.73
2018-04-19T03:31:15.246Z,19.60
2018-04-19T03:34:17.686Z,20.27
2018-04-19T03:37:20.171Z,19.83
2018-04-19T03:40:22.668Z,18.80
2018-04-19T03:43:25.181Z,20.73
2018-04-19T03:46:27.770Z,18.60
2018-04-19T03:49:30.277Z,19.10
2018-04-19T03:52:32.775Z,19.03
2018-04-19T03:55:35.241Z,20.63
2018-04-19T03:58:37.742Z,20.07
2018-04-19T04:01:40.237Z,19.40
2018-04-19T04:04:42.761Z,18.70
2018-04-19T04:07:45.286Z,17.73
2018-04-19T04:10:47.775Z,17.67
2018-04-19T04:13:50.252Z,17.20
2018-04-19T04:17:04.564Z,17.50
2018-04-19T04:20:18.992Z,17.80
2018-04-19T04:23:33.276Z,19.20
2018-04-19T04:26:35.753Z,20.70
2018-04-19T04:29:38.261Z,21.60
2018-04-19T04:32:40.762Z,20.90
2018-04-19T04:35:43.241Z,22.37
2018-04-19T04:38:45.746Z,22.87
2018-04-19T04:41:48.216Z,21.10
2018-04-19T04:44:50.718Z,20.30
2018-04-19T04:47:53.224Z,20.50
2018-04-19T04:50:55.715Z,20.23
2018-04-19T04:53:58.226Z,19.07
2018-04-19T04:57:00.776Z,19.33
2018-04-19T05:00:03.352Z,18.77
2018-04-19T05:03:05.860Z,19.17
2018-04-19T05:06:08.521Z,18.10
2018-04-19T05:09:11.048Z,19.67
2018-04-19T05:12:13.547Z,18.13
2018-04-19T05:15:16.067Z,19.20
2018-04-19T05:18:18.528Z,17.73
2018-04-19T05:21:21.015Z,17.27
2018-04-19T05:24:23.486Z,17.10
2018-04-19T05:27:26.012Z,16.20
2018-04-19T05:30:28.506Z,16.20
2018-04-19T05:33:31.092Z,15.97
2018-04-19T05:36:33.607Z,15.27
2018-04-19T05:39:36.051Z,15.93
2018-04-19T05:42:38.546Z,15.10
2018-04-19T05:45:41.078Z,14.87
2018-04-19T05:48:43.596Z,14.80
2018-04-19T05:51:46.175Z,13.73
2018-04-19T05:54:48.766Z,14.83
2018-04-19T05:57:51.281Z,13.83
2018-04-19T06:00:53.796Z,14.27
2018-04-19T06:03:56.353Z,14.00
2018-04-19T06:06:58.917Z,13.37
2018-04-19T06:10:01.483Z,13.63
2018-04-19T06:13:03.975Z,13.37
2018-04-19T06:16:06.469Z,13.80
2018-04-19T06:19:08.982Z,13.40
2018-04-19T06:22:11.476Z,13.90
2018-04-19T06:25:13.963Z,13.00
2018-04-19T06:28:16.553Z,13.10
2018-04-19T06:31:19.029Z,13.40
2018-04-19T06:34:21.603Z,11.10
2018-04-19T06:37:24.241Z,11.60
2018-04-19T06:40:26.708Z,12.20
2018-04-19T06:43:29.184Z,11.60
2018-04-19T06:46:31.628Z,11.80
2018-04-19T06:49:34.284Z,11.87
2018-04-19T06:52:36.878Z,12.00
2018-04-19T06:55:39.413Z,11.90
2018-04-19T06:58:41.917Z,13.10
2018-04-19T07:01:44.417Z,14.30
2018-04-19T07:04:46.882Z,14.10
2018-04-19T07:07:49.398Z,14.20
2018-04-19T07:10:51.862Z,14.23
2018-04-19T07:13:54.383Z,15.67
2018-04-19T07:16:56.877Z,14.40
2018-04-19T07:19:59.503Z,14.10
2018-04-19T07:23:02.025Z,14.70
2018-04-19T07:26:04.537Z,15.10
2018-04-19T07:29:07.394Z,15.77
2018-04-19T07:32:09.901Z,15.07
2018-04-19T07:35:12.403Z,16.23
2018-04-19T07:38:14.868Z,15.30
2018-04-19T07:41:17.372Z,15.60
2018-04-19T07:44:19.853Z,16.23
2018-04-19T07:47:22.367Z,16.00
2018-04-19T07:50:24.932Z,15.43
2018-04-19T07:53:27.578Z,16.27
2018-04-19T07:56:30.058Z,17.10
2018-04-19T07:59:32.562Z,15.40
2018-04-19T08:02:35.073Z,16.60
2018-04-19T08:05:37.545Z,16.90
2018-04-19T08:08:40.044Z,15.53
2018-04-19T08:11:42.598Z,16.37
2018-04-19T08:14:45.068Z,15.33
2018-04-19T08:17:47.588Z,17.17
2018-04-19T08:20:50.123Z,15.60
2018-04-19T08:23:52.629Z,17.40
2018-04-19T08:26:55.098Z,16.37
2018-04-19T08:29:57.593Z,16.63
2018-04-19T08:33:00.143Z,16.00
2018-04-19T08:36:02.609Z,18.60
2018-04-19T08:39:05.830Z,18.00
2018-04-19T08:42:08.411Z,17.17
2018-04-19T08:45:10.884Z,16.50
2018-04-19T08:48:13.372Z,17.83
2018-04-19T08:51:15.875Z,17.50
2018-04-19T08:54:18.358Z,17.40
2018-04-19T08:57:20.850Z,17.50
2018-04-19T09:00:23.349Z,17.20
2018-04-19T09:03:25.830Z,15.70
2018-04-19T09:06:28.313Z,16.63
2018-04-19T09:09:30.848Z,17.00
2018-04-19T09:12:33.316Z,16.30
2018-04-19T09:15:35.828Z,16.30
2018-04-19T09:18:38.340Z,16.40
2018-04-19T09:21:40.800Z,16.33
2018-04-19T09:24:43.323Z,15.10
2018-04-19T09:27:45.819Z,14.87
2018-04-19T09:30:48.319Z,16.90
2018-04-19T09:33:50.785Z,15.63
2018-04-19T09:36:53.291Z,15.50
2018-04-19T09:39:55.780Z,15.70
2018-04-19T09:42:58.251Z,15.87
2018-04-19T09:46:00.744Z,15.80
2018-04-19T09:49:03.224Z,16.53
2018-04-19T09:52:05.723Z,15.97
2018-04-19T09:55:08.404Z,16.37
2018-04-19T09:58:10.858Z,16.10
2018-04-19T10:01:13.420Z,16.50
2018-04-19T10:04:16.053Z,15.17
2018-04-19T10:07:18.555Z,15.37
2018-04-19T10:10:21.044Z,15.43
2018-04-19T10:13:23.498Z,14.90
2018-04-19T10:16:25.991Z,15.27
2018-04-19T10:19:28.491Z,15.13
2018-04-19T10:22:30.976Z,15.00
2018-04-19T10:25:33.459Z,15.00
2018-04-19T10:28:36.017Z,15.60
2018-04-19T10:31:39.754Z,14.70
2018-04-19T10:34:42.244Z,14.67
2018-04-19T10:37:44.730Z,14.90
2018-04-19T10:40:47.225Z,14.83
2018-04-19T10:43:49.731Z,15.47
2018-04-19T10:46:52.229Z,13.87
2018-04-19T10:49:54.725Z,15.30
2018-04-19T10:52:57.215Z,15.30
2018-04-19T10:55:59.696Z,15.23
2018-04-19T10:59:02.166Z,15.37
2018-04-19T11:02:04.656Z,13.40
2018-04-19T11:05:07.106Z,14.40
2018-04-19T11:08:09.620Z,14.57
2018-04-19T11:11:12.129Z,14.80
2018-04-19T11:14:14.725Z,13.70
2018-04-19T11:17:17.265Z,12.30
2018-04-19T11:20:19.759Z,12.33
2018-04-19T11:23:22.230Z,12.67
2018-04-19T11:26:24.713Z,12.87
2018-04-19T11:29:27.300Z,11.40
2018-04-19T11:32:29.781Z,11.20
2018-04-19T11:35:32.304Z,11.60
2018-04-19T11:38:34.790Z,8.50
2018-04-19T11:41:37.294Z,7.03
2018-04-19T11:44:39.756Z,8.80
2018-04-19T11:47:42.244Z,8.27
2018-04-19T11:50:44.745Z,8.20
2018-04-19T11:53:47.184Z,9.50
2018-04-19T11:56:49.661Z,9.97
2018-04-19T11:59:52.145Z,11.37
2018-04-19T12:02:54.643Z,10.27
2018-04-19T12:05:57.149Z,10.20
2018-04-19T12:08:59.630Z,10.10
2018-04-19T12:12:02.127Z,10.07
2018-04-19T12:15:04.683Z,9.27
2018-04-19T12:18:07.190Z,9.10
2018-04-19T12:21:09.787Z,8.20
2018-04-19T12:24:12.296Z,9.20
2018-04-19T12:27:14.774Z,8.43
2018-04-19T12:30:17.282Z,8.50
2018-04-19T12:33:19.791Z,11.00
2018-04-19T12:36:22.371Z,10.20
2018-04-19T12:39:24.881Z,9.50
2018-04-19T12:42:27.362Z,9.63
2018-04-19T12:45:29.883Z,10.43
2018-04-19T12:48:32.456Z,8.90
2018-04-19T12:51:34.918Z,8.80
2018-04-19T12:54:37.417Z,7.90
2018-04-19T12:57:39.896Z,8.07
2018-04-19T13:00:42.377Z,8.00
2018-04-19T13:03:44.889Z,8.40
2018-04-19T13:06:47.398Z,7.53
2018-04-19T13:09:49.881Z,6.50
2018-04-19T13:12:52.506Z,7.40
2018-04-19T13:15:54.965Z,7.10
2018-04-19T13:18:57.471Z,7.37
2018-04-19T13:21:59.941Z,6.53
2018-04-19T13:25:02.464Z,7.13
2018-04-19T13:28:04.985Z,6.07
2018-04-19T13:31:07.484Z,7.20
2018-04-19T13:34:10.001Z,7.30
2018-04-19T13:37:12.447Z,6.90
2018-04-19T13:40:14.919Z,5.87
2018-04-19T13:43:17.477Z,5.93
2018-04-19T13:46:19.955Z,6.30
2018-04-19T13:49:22.427Z,6.30
2018-04-19T13:52:24.932Z,7.83
2018-04-19T13:55:27.392Z,6.10
2018-04-19T13:58:29.947Z,5.30
2018-04-19T14:01:32.449Z,5.37
2018-04-19T14:04:34.933Z,5.10
2018-04-19T14:07:37.441Z,4.63
2018-04-19T14:10:39.930Z,4.70
2018-04-19T14:13:42.446Z,5.90
2018-04-19T14:16:44.948Z,5.80
2018-04-19T14:19:47.503Z,5.10
2018-04-19T14:22:50.029Z,5.40
2018-04-19T14:25:52.584Z,5.37
2018-04-19T14:28:55.006Z,5.17
2018-04-19T14:31:57.491Z,5.43
2018-04-19T14:34:59.988Z,5.40
2018-04-19T14:38:02.505Z,5.40
2018-04-19T14:41:04.965Z,5.30
2018-04-19T14:44:07.430Z,4.90
2018-04-19T14:47:09.919Z,5.70
2018-04-19T14:50:12.449Z,5.17
2018-04-19T14:53:15.004Z,5.10
2018-04-19T14:56:17.454Z,5.33
2018-04-19T14:59:19.993Z,4.50
2018-04-19T15:02:22.488Z,5.50
2018-04-19T15:05:24.997Z,5.47
2018-04-19T15:08:27.609Z,4.80
2018-04-19T15:11:30.167Z,5.90
2018-04-19T15:14:32.648Z,5.93
2018-04-19T15:17:35.151Z,5.63
2018-04-19T15:20:37.663Z,6.03
2018-04-19T15:23:40.173Z,5.67
2018-04-19T15:26:42.736Z,6.43
2018-04-19T15:29:45.272Z,5.80
2018-04-19T15:32:48.670Z,6.87
2018-04-19T15:35:51.189Z,6.53
2018-04-19T15:38:53.729Z,6.43
2018-04-19T15:41:56.332Z,6.70
2018-04-19T15:44:58.798Z,6.90
2018-04-19T15:48:01.353Z,6.17
2018-04-19T15:51:03.972Z,6.40
2018-04-19T15:54:06.440Z,6.27
2018-04-19T15:57:08.987Z,6.70
2018-04-19T16:00:11.614Z,8.03
2018-04-19T16:03:14.090Z,7.77
2018-04-19T16:06:16.624Z,7.93
2018-04-19T16:09:19.090Z,7.30
2018-04-19T16:12:21.675Z,7.93
2018-04-19T16:15:24.114Z,7.07
2018-04-19T16:18:26.636Z,9.07
2018-04-19T16:21:29.108Z,9.13
2018-04-19T16:24:31.630Z,10.70
2018-04-19T16:27:34.129Z,10.63
2018-04-19T16:30:36.644Z,11.07
2018-04-19T16:33:39.229Z,12.20
2018-04-19T16:36:41.737Z,11.70
2018-04-19T16:39:44.232Z,13.60
2018-04-19T16:42:46.697Z,12.53
2018-04-19T16:45:49.225Z,12.60
2018-04-19T16:48:51.787Z,12.13
2018-04-19T16:51:54.308Z,13.00
2018-04-19T16:54:56.946Z,11.93
2018-04-19T16:57:59.471Z,13.27
2018-04-19T17:01:02.036Z,13.03
2018-04-19T17:04:04.523Z,13.00
2018-04-19T17:07:07.028Z,16.30
2018-04-19T17:10:09.631Z,15.10
2018-04-19T17:13:12.141Z,15.97
2018-04-19T17:16:14.652Z,15.43
2018-04-19T17:19:17.171Z,15.20
2018-04-19T17:22:19.783Z,14.97
2018-04-19T17:25:22.336Z,15.40
2018-04-19T17:28:24.887Z,15.37
2018-04-19T17:31:27.432Z,14.80
2018-04-19T17:34:30.057Z,15.37
2018-04-19T17:37:32.569Z,16.93
2018-04-19T17:40:35.769Z,17.00
2018-04-19T17:43:38.331Z,17.80
2018-04-19T17:46:40.940Z,17.13
2018-04-19T17:49:43.473Z,16.83
2018-04-19T17:52:45.928Z,16.57
2018-04-19T17:55:48.431Z,17.37
2018-04-19T17:58:50.935Z,16.70
2018-04-19T18:01:53.401Z,17.50
2018-04-19T18:04:55.970Z,17.10
2018-04-19T18:07:58.468Z,18.63
2018-04-19T18:11:01.013Z,17.97
2018-04-19T18:14:03.470Z,18.90
2018-04-19T18:17:06.060Z,16.73
2018-04-19T18:20:08.616Z,17.37
2018-04-19T18:23:11.235Z,16.67
2018-04-19T18:26:13.780Z,17.60
2018-04-19T18:29:16.384Z,17.40
2018-04-19T18:32:18.911Z,19.03
2018-04-19T18:35:21.421Z,17.93
2018-04-19T18:38:23.913Z,18.27
2018-04-19T18:41:26.460Z,18.40
2018-04-19T18:44:28.974Z,19.50
2018-04-19T18:47:31.477Z,18.73
2018-04-19T18:50:33.992Z,18.97
2018-04-19T18:53:36.454Z,18.67
2018-04-19T18:56:39.079Z,18.70
2018-04-19T18:59:41.491Z,19.73
2018-04-19T19:02:44.012Z,19.37
2018-04-19T19:05:46.488Z,20.27
2018-04-19T19:08:49.039Z,20.00
2018-04-19T19:11:51.519Z,20.10
2018-04-19T19:14:54.066Z,21.37
2018-04-19T19:21:31.199Z,21.47
2018-04-19T19:24:33.689Z,21.03
2018-04-19T19:27:36.237Z,21.63
2018-04-19T19:30:38.727Z,21.57
2018-04-19T19:33:41.244Z,22.57
2018-04-19T19:36:43.965Z,23.07
2018-04-19T19:39:46.564Z,22.40
2018-04-19T19:42:49.016Z,21.60
2018-04-19T19:45:52.785Z,23.37
2018-04-19T19:48:55.283Z,23.13
2018-04-19T19:51:57.940Z,21.90
2018-04-19T19:55:00.477Z,22.40
2018-04-19T19:58:03.022Z,22.90
2018-04-19T20:01:05.536Z,22.77
2018-04-19T20:04:08.007Z,22.80
2018-04-19T20:07:10.602Z,23.23
2018-04-19T20:10:12.993Z,22.30
2018-04-19T20:13:15.579Z,23.13
2018-04-19T20:16:18.102Z,23.23
2018-04-19T20:19:20.656Z,22.87
2018-04-19T20:22:23.242Z,22.67
2018-04-19T20:25:25.745Z,23.80
2018-04-19T20:28:28.260Z,24.23
2018-04-19T20:31:30.788Z,24.37
2018-04-19T20:34:33.284Z,23.40
2018-04-19T20:37:35.846Z,24.27
2018-04-19T20:40:38.415Z,23.23
2018-04-19T20:43:40.915Z,22.97
2018-04-19T20:46:43.465Z,24.50
2018-04-19T20:49:45.973Z,23.90
2018-04-19T20:52:48.455Z,23.50
2018-04-19T20:55:51.000Z,22.70
2018-04-19T20:58:53.473Z,22.10
2018-04-19T21:01:55.972Z,21.80
2018-04-19T21:04:58.491Z,22.07
2018-04-19T21:08:01.025Z,22.07
2018-04-19T21:11:03.513Z,20.53
2018-04-19T21:14:06.135Z,20.13
2018-04-19T21:17:08.632Z,20.73
2018-04-19T21:20:11.108Z,18.83
2018-04-19T21:23:13.630Z,18.87
2018-04-19T21:26:16.116Z,19.83
2018-04-19T21:29:18.605Z,18.87
2018-04-19T21:32:21.067Z,19.40
2018-04-19T21:35:23.571Z,18.70
2018-04-19T21:38:26.032Z,19.10
2018-04-19T21:41:28.579Z,19.20
2018-04-19T21:44:31.182Z,18.10
2018-04-19T21:47:33.742Z,19.07
2018-04-19T21:50:36.202Z,18.90
2018-04-19T21:53:38.683Z,19.00
2018-04-19T21:56:41.135Z,19.00
2018-04-19T21:59:43.649Z,19.53
2018-04-19T22:02:46.141Z,19.10
2018-04-19T22:05:48.637Z,19.87
2018-04-19T22:08:51.203Z,20.10
2018-04-19T22:11:53.701Z,19.10
2018-04-19T22:14:56.173Z,19.90
2018-04-19T22:17:58.663Z,18.53
2018-04-19T22:21:01.150Z,19.23
2018-04-19T22:24:03.664Z,18.60
2018-04-19T22:27:06.244Z,17.80
2018-04-19T22:30:08.865Z,16.87
2018-04-19T22:33:11.375Z,17.90
2018-04-19T22:36:13.933Z,17.90
2018-04-19T22:39:16.462Z,18.13
2018-04-19T22:42:18.937Z,17.30
2018-04-19T22:45:21.551Z,17.60
2018-04-19T22:48:24.044Z,17.27
2018-04-19T22:51:26.591Z,18.10
2018-04-19T22:57:37.969Z,18.00
2018-04-19T23:00:40.535Z,17.10
2018-04-19T23:03:43.001Z,19.07
2018-04-19T23:06:45.544Z,17.60
2018-04-19T23:09:48.056Z,18.20
2018-04-19T23:12:50.758Z,17.53
2018-04-19T23:15:53.254Z,18.27
2018-04-19T23:18:55.805Z,16.87
2018-04-19T23:21:58.280Z,18.20
2018-04-19T23:25:00.876Z,17.87
2018-04-19T23:28:03.434Z,17.80
2018-04-19T23:31:05.904Z,18.00
2018-04-19T23:34:08.422Z,17.57
2018-04-19T23:37:10.966Z,18.23
2018-04-19T23:40:13.481Z,18.80
2018-04-19T23:43:15.977Z,19.10
2018-04-19T23:46:18.499Z,19.33
2018-04-19T23:49:21.031Z,17.83
2018-04-19T23:52:23.494Z,18.70
2018-04-19T23:55:26.145Z,18.90
2018-04-19T23:58:28.650Z,18.93
